sensor_id;sensor_type;location;lat;lon;timestamp;P1;P2;P0
72509;PMS5003;60532;56.114;40.350;2023-11-19T00:00:18;18.75;15.75;9.00
72509;PMS5003;60532;56.114;40.350;2023-11-19T00:02:18;16.50;10.50;4.00
72509;PMS5003;60532;56.114;40.350;2023-11-19T00:04:19;19.00;12.00;6.75
72509;PMS5003;60532;56.114;40.350;2023-11-19T00:06:19;20.75;16.25;7.00
72509;PMS5003;60532;56.114;40.350;2023-11-19T00:08:20;19.50;12.00;6.00
72509;PMS5003;60532;56.114;40.350;2023-11-19T00:10:20;6.00;6.00;4.00
72509;PMS5003;60532;56.114;40.350;2023-11-19T00:12:21;18.25;10.50;6.25
72509;PMS5003;60532;56.114;40.350;2023-11-19T00:14:22;20.60;14.20;6.00
72509;PMS5003;60532;56.114;40.350;2023-11-19T00:16:24;11.60;10.40;7.00
72509;PMS5003;60532;56.114;40.350;2023-11-19T00:18:24;14.00;14.00;7.50
72509;PMS5003;60532;56.114;40.350;2023-11-19T00:20:25;20.25;10.00;4.00
72509;PMS5003;60532;56.114;40.350;2023-11-19T00:22:25;18.00;14.00;7.00
72509;PMS5003;60532;56.114;40.350;2023-11-19T00:24:26;17.50;12.25;6.00
72509;PMS5003;60532;56.114;40.350;2023-11-19T00:26:26;16.00;9.50;6.00
72509;PMS5003;60532;56.114;40.350;2023-11-19T00:28:27;17.00;13.00;6.00
72509;PMS5003;60532;56.114;40.350;2023-11-19T00:30:27;18.25;10.75;6.00
72509;PMS5003;60532;56.114;40.350;2023-11-19T00:32:27;18.00;15.00;6.25
72509;PMS5003;60532;56.114;40.350;2023-11-19T00:34:28;21.50;16.25;7.00
72509;PMS5003;60532;56.114;40.350;2023-11-19T00:36:28;15.00;11.50;4.00
72509;PMS5003;60532;56.114;40.350;2023-11-19T00:38:29;9.50;9.25;6.25
72509;PMS5003;60532;56.114;40.350;2023-11-19T00:40:29;18.75;15.50;7.00
72509;PMS5003;60532;56.114;40.350;2023-11-19T00:42:30;20.00;15.75;8.75
72509;PMS5003;60532;56.114;40.350;2023-11-19T00:44:30;13.50;11.00;6.00
72509;PMS5003;60532;56.114;40.350;2023-11-19T00:46:31;23.50;19.50;9.00
72509;PMS5003;60532;56.114;40.350;2023-11-19T00:48:32;18.60;15.40;6.00
72509;PMS5003;60532;56.114;40.350;2023-11-19T00:50:33;21.25;17.00;8.50
72509;PMS5003;60532;56.114;40.350;2023-11-19T00:52:33;23.75;15.00;7.00
72509;PMS5003;60532;56.114;40.350;2023-11-19T00:54:34;19.75;16.00;7.00
72509;PMS5003;60532;56.114;40.350;2023-11-19T00:56:34;24.50;15.00;9.75
72509;PMS5003;60532;56.114;40.350;2023-11-19T00:58:34;19.50;14.00;6.00
72509;PMS5003;60532;56.114;40.350;2023-11-19T01:00:35;16.00;12.00;6.00
72509;PMS5003;60532;56.114;40.350;2023-11-19T01:02:35;14.25;12.50;6.00
72509;PMS5003;60532;56.114;40.350;2023-11-19T01:04:36;20.00;15.25;9.00
72509;PMS5003;60532;56.114;40.350;2023-11-19T01:06:36;19.00;15.00;7.50
72509;PMS5003;60532;56.114;40.350;2023-11-19T01:08:37;22.75;13.00;7.50
72509;PMS5003;60532;56.114;40.350;2023-11-19T01:10:40;13.25;7.50;7.00
72509;PMS5003;60532;56.114;40.350;2023-11-19T01:12:40;20.80;16.80;8.60
72509;PMS5003;60532;56.114;40.350;2023-11-19T01:14:41;20.50;16.50;6.75
72509;PMS5003;60532;56.114;40.350;2023-11-19T01:16:41;22.00;16.75;6.50
72509;PMS5003;60532;56.114;40.350;2023-11-19T01:18:42;19.80;18.00;9.00
72509;PMS5003;60532;56.114;40.350;2023-11-19T01:20:43;19.50;15.25;6.25
72509;PMS5003;60532;56.114;40.350;2023-11-19T01:22:43;18.00;14.25;6.25
72509;PMS5003;60532;56.114;40.350;2023-11-19T01:24:44;17.20;14.60;6.00
72509;PMS5003;60532;56.114;40.350;2023-11-19T01:26:45;13.00;12.00;3.25
72509;PMS5003;60532;56.114;40.350;2023-11-19T01:28:46;15.40;14.20;7.00
72509;PMS5003;60532;56.114;40.350;2023-11-19T01:30:50;17.60;13.80;6.00
72509;PMS5003;60532;56.114;40.350;2023-11-19T01:32:50;18.20;15.20;7.00
72509;PMS5003;60532;56.114;40.350;2023-11-19T01:34:51;15.50;14.00;7.00
72509;PMS5003;60532;56.114;40.350;2023-11-19T01:36:51;13.50;9.75;5.00
72509;PMS5003;60532;56.114;40.350;2023-11-19T01:38:52;12.50;10.50;4.00
72509;PMS5003;60532;56.114;40.350;2023-11-19T01:40:55;15.25;14.25;7.00
72509;PMS5003;60532;56.114;40.350;2023-11-19T01:42:56;15.40;12.80;7.00
72509;PMS5003;60532;56.114;40.350;2023-11-19T01:44:59;18.50;11.50;6.00
72509;PMS5003;60532;56.114;40.350;2023-11-19T01:47:00;18.00;14.60;7.00
72509;PMS5003;60532;56.114;40.350;2023-11-19T01:49:01;17.40;15.00;6.40
72509;PMS5003;60532;56.114;40.350;2023-11-19T01:51:02;18.00;14.20;7.00
72509;PMS5003;60532;56.114;40.350;2023-11-19T01:53:04;18.20;17.20;11.00
72509;PMS5003;60532;56.114;40.350;2023-11-19T01:55:04;3.25;3.25;3.00
72509;PMS5003;60532;56.114;40.350;2023-11-19T01:57:05;14.00;12.25;7.00
72509;PMS5003;60532;56.114;40.350;2023-11-19T01:59:06;23.20;15.60;7.00
72509;PMS5003;60532;56.114;40.350;2023-11-19T02:01:07;15.40;12.00;3.40
72509;PMS5003;60532;56.114;40.350;2023-11-19T02:03:07;20.50;16.00;7.50
72509;PMS5003;60532;56.114;40.350;2023-11-19T02:05:09;19.50;12.75;6.00
72509;PMS5003;60532;56.114;40.350;2023-11-19T02:07:09;13.50;11.00;7.00
72509;PMS5003;60532;56.114;40.350;2023-11-19T02:09:10;23.75;17.00;7.00
72509;PMS5003;60532;56.114;40.350;2023-11-19T02:11:10;18.00;16.00;6.25
72509;PMS5003;60532;56.114;40.350;2023-11-19T02:13:12;15.40;12.40;7.80
72509;PMS5003;60532;56.114;40.350;2023-11-19T02:15:14;13.40;12.00;7.00
72509;PMS5003;60532;56.114;40.350;2023-11-19T02:17:27;18.50;12.50;8.50
72509;PMS5003;60532;56.114;40.350;2023-11-19T02:19:27;11.80;8.60;6.00
72509;PMS5003;60532;56.114;40.350;2023-11-19T02:21:29;15.20;12.60;6.60
72509;PMS5003;60532;56.114;40.350;2023-11-19T02:23:29;14.00;13.00;7.00
72509;PMS5003;60532;56.114;40.350;2023-11-19T02:25:30;18.50;16.00;8.00
72509;PMS5003;60532;56.114;40.350;2023-11-19T02:29:45;17.20;11.20;7.80
72509;PMS5003;60532;56.114;40.350;2023-11-19T02:31:46;26.00;18.50;7.00
72509;PMS5003;60532;56.114;40.350;2023-11-19T02:33:47;24.00;17.20;7.00
72509;PMS5003;60532;56.114;40.350;2023-11-19T02:35:47;16.00;16.00;9.00
72509;PMS5003;60532;56.114;40.350;2023-11-19T02:37:48;20.50;15.50;8.00
72509;PMS5003;60532;56.114;40.350;2023-11-19T02:39:48;20.75;16.00;9.50
72509;PMS5003;60532;56.114;40.350;2023-11-19T02:41:49;25.00;17.50;7.00
72509;PMS5003;60532;56.114;40.350;2023-11-19T02:43:52;22.80;18.40;10.00
72509;PMS5003;60532;56.114;40.350;2023-11-19T02:45:53;24.40;18.20;7.00
72509;PMS5003;60532;56.114;40.350;2023-11-19T02:47:55;31.40;22.40;12.40
72509;PMS5003;60532;56.114;40.350;2023-11-19T02:49:56;28.25;18.75;10.00
72509;PMS5003;60532;56.114;40.350;2023-11-19T02:51:56;19.50;13.00;10.00
72509;PMS5003;60532;56.114;40.350;2023-11-19T02:53:57;23.00;16.00;8.50
72509;PMS5003;60532;56.114;40.350;2023-11-19T02:55:58;21.60;17.20;9.20
72509;PMS5003;60532;56.114;40.350;2023-11-19T02:58:06;26.40;18.60;10.40
72509;PMS5003;60532;56.114;40.350;2023-11-19T03:00:23;20.60;16.80;9.60
72509;PMS5003;60532;56.114;40.350;2023-11-19T03:02:34;31.00;16.80;11.60
72509;PMS5003;60532;56.114;40.350;2023-11-19T03:04:44;22.80;16.80;9.00
72509;PMS5003;60532;56.114;40.350;2023-11-19T03:06:46;34.40;21.00;11.20
72509;PMS5003;60532;56.114;40.350;2023-11-19T03:08:46;29.20;22.20;11.60
72509;PMS5003;60532;56.114;40.350;2023-11-19T03:10:48;24.20;16.00;9.40
72509;PMS5003;60532;56.114;40.350;2023-11-19T03:12:49;16.60;14.00;6.00
72509;PMS5003;60532;56.114;40.350;2023-11-19T03:14:49;25.00;22.50;12.00
72509;PMS5003;60532;56.114;40.350;2023-11-19T03:16:51;25.60;22.00;12.00
72509;PMS5003;60532;56.114;40.350;2023-11-19T03:18:51;31.50;21.25;11.00
72509;PMS5003;60532;56.114;40.350;2023-11-19T03:20:52;21.00;19.00;10.00
72509;PMS5003;60532;56.114;40.350;2023-11-19T03:22:53;8.50;1.50;1.00
72509;PMS5003;60532;56.114;40.350;2023-11-19T03:24:53;21.25;19.50;10.50
72509;PMS5003;60532;56.114;40.350;2023-11-19T03:26:53;29.00;20.25;13.50
72509;PMS5003;60532;56.114;40.350;2023-11-19T03:28:54;28.75;24.00;10.00
72509;PMS5003;60532;56.114;40.350;2023-11-19T03:30:54;23.00;21.25;12.00
72509;PMS5003;60532;56.114;40.350;2023-11-19T03:32:55;28.25;25.00;12.50
72509;PMS5003;60532;56.114;40.350;2023-11-19T03:34:56;24.00;18.60;6.40
72509;PMS5003;60532;56.114;40.350;2023-11-19T03:36:56;23.25;15.25;6.50
72509;PMS5003;60532;56.114;40.350;2023-11-19T03:38:57;27.50;22.00;11.00
72509;PMS5003;60532;56.114;40.350;2023-11-19T03:40:57;30.75;23.75;12.00
72509;PMS5003;60532;56.114;40.350;2023-11-19T03:42:59;25.40;21.20;12.40
72509;PMS5003;60532;56.114;40.350;2023-11-19T03:44:59;26.50;21.75;9.00
72509;PMS5003;60532;56.114;40.350;2023-11-19T03:47:00;18.75;18.75;9.00
72509;PMS5003;60532;56.114;40.350;2023-11-19T03:49:00;29.75;19.00;12.25
72509;PMS5003;60532;56.114;40.350;2023-11-19T03:51:01;25.75;21.00;9.00
72509;PMS5003;60532;56.114;40.350;2023-11-19T03:53:01;31.00;24.00;12.00
72509;PMS5003;60532;56.114;40.350;2023-11-19T03:55:03;25.40;22.40;10.40
72509;PMS5003;60532;56.114;40.350;2023-11-19T03:57:05;30.40;25.00;12.00
72509;PMS5003;60532;56.114;40.350;2023-11-19T03:59:06;33.50;29.00;12.00
72509;PMS5003;60532;56.114;40.350;2023-11-19T04:01:10;29.50;24.25;12.00
72509;PMS5003;60532;56.114;40.350;2023-11-19T04:03:11;30.40;23.20;13.00
72509;PMS5003;60532;56.114;40.350;2023-11-19T04:05:11;27.00;21.25;11.50
72509;PMS5003;60532;56.114;40.350;2023-11-19T04:07:12;38.75;27.00;10.00
72509;PMS5003;60532;56.114;40.350;2023-11-19T04:09:12;49.00;27.50;16.50
72509;PMS5003;60532;56.114;40.350;2023-11-19T04:11:12;34.25;21.75;10.00
72509;PMS5003;60532;56.114;40.350;2023-11-19T04:13:13;38.75;29.00;14.00
72509;PMS5003;60532;56.114;40.350;2023-11-19T04:15:14;23.50;21.50;11.50
72509;PMS5003;60532;56.114;40.350;2023-11-19T04:17:14;27.25;20.00;8.00
72509;PMS5003;60532;56.114;40.350;2023-11-19T04:19:14;28.50;21.50;12.00
72509;PMS5003;60532;56.114;40.350;2023-11-19T04:21:15;37.50;28.00;13.00
72509;PMS5003;60532;56.114;40.350;2023-11-19T04:23:16;34.00;28.25;13.50
72509;PMS5003;60532;56.114;40.350;2023-11-19T04:25:17;30.00;21.25;12.75
72509;PMS5003;60532;56.114;40.350;2023-11-19T04:27:19;30.60;22.40;12.20
72509;PMS5003;60532;56.114;40.350;2023-11-19T04:29:20;38.00;26.00;15.00
72509;PMS5003;60532;56.114;40.350;2023-11-19T04:31:20;35.00;26.00;12.25
72509;PMS5003;60532;56.114;40.350;2023-11-19T04:33:21;26.00;18.75;12.00
72509;PMS5003;60532;56.114;40.350;2023-11-19T04:35:21;28.25;23.75;12.00
72509;PMS5003;60532;56.114;40.350;2023-11-19T04:37:21;26.00;15.75;9.75
72509;PMS5003;60532;56.114;40.350;2023-11-19T04:39:22;27.25;23.00;10.50
72509;PMS5003;60532;56.114;40.350;2023-11-19T04:41:22;21.75;19.00;9.50
72509;PMS5003;60532;56.114;40.350;2023-11-19T04:43:23;35.25;22.00;11.00
72509;PMS5003;60532;56.114;40.350;2023-11-19T04:45:23;27.50;22.00;13.00
72509;PMS5003;60532;56.114;40.350;2023-11-19T04:47:24;27.00;23.25;13.00
72509;PMS5003;60532;56.114;40.350;2023-11-19T04:49:24;26.00;23.00;11.50
72509;PMS5003;60532;56.114;40.350;2023-11-19T04:51:27;31.60;23.60;10.00
72509;PMS5003;60532;56.114;40.350;2023-11-19T04:53:28;32.75;24.00;12.00
72509;PMS5003;60532;56.114;40.350;2023-11-19T04:55:30;34.00;22.40;11.40
72509;PMS5003;60532;56.114;40.350;2023-11-19T04:57:30;42.00;27.75;12.00
72509;PMS5003;60532;56.114;40.350;2023-11-19T04:59:33;24.60;22.00;12.20
72509;PMS5003;60532;56.114;40.350;2023-11-19T05:01:34;18.00;15.00;6.40
72509;PMS5003;60532;56.114;40.350;2023-11-19T05:03:35;30.60;25.00;13.00
72509;PMS5003;60532;56.114;40.350;2023-11-19T05:05:36;30.75;23.25;10.50
72509;PMS5003;60532;56.114;40.350;2023-11-19T05:07:36;35.75;25.50;12.00
72509;PMS5003;60532;56.114;40.350;2023-11-19T05:09:38;27.60;19.80;11.60
72509;PMS5003;60532;56.114;40.350;2023-11-19T05:11:38;36.50;27.50;15.50
72509;PMS5003;60532;56.114;40.350;2023-11-19T05:13:39;31.75;24.50;12.00
72509;PMS5003;60532;56.114;40.350;2023-11-19T05:15:39;39.00;34.00;20.00
72509;PMS5003;60532;56.114;40.350;2023-11-19T05:17:40;49.00;33.50;19.50
72509;PMS5003;60532;56.114;40.350;2023-11-19T05:19:40;37.00;29.75;16.00
72509;PMS5003;60532;56.114;40.350;2023-11-19T05:21:43;29.50;25.00;12.50
72509;PMS5003;60532;56.114;40.350;2023-11-19T05:23:44;29.60;24.40;12.00
72509;PMS5003;60532;56.114;40.350;2023-11-19T05:25:44;27.25;24.75;15.75
72509;PMS5003;60532;56.114;40.350;2023-11-19T05:27:45;37.50;24.50;16.00
72509;PMS5003;60532;56.114;40.350;2023-11-19T05:29:46;33.25;26.50;14.00
72509;PMS5003;60532;56.114;40.350;2023-11-19T05:31:46;40.25;27.00;12.00
72509;PMS5003;60532;56.114;40.350;2023-11-19T05:33:47;30.80;27.20;15.60
72509;PMS5003;60532;56.114;40.350;2023-11-19T05:35:48;26.50;21.50;10.50
72509;PMS5003;60532;56.114;40.350;2023-11-19T05:37:49;34.25;27.00;13.50
72509;PMS5003;60532;56.114;40.350;2023-11-19T05:39:50;27.80;25.00;15.20
72509;PMS5003;60532;56.114;40.350;2023-11-19T05:41:51;29.25;24.50;13.00
72509;PMS5003;60532;56.114;40.350;2023-11-19T05:43:51;34.50;24.00;14.50
72509;PMS5003;60532;56.114;40.350;2023-11-19T05:45:52;27.50;24.50;13.00
72509;PMS5003;60532;56.114;40.350;2023-11-19T05:47:55;28.80;25.20;13.80
72509;PMS5003;60532;56.114;40.350;2023-11-19T05:49:56;33.00;25.00;13.50
72509;PMS5003;60532;56.114;40.350;2023-11-19T05:51:57;38.00;32.00;15.00
72509;PMS5003;60532;56.114;40.350;2023-11-19T05:53:57;33.75;23.00;12.00
72509;PMS5003;60532;56.114;40.350;2023-11-19T05:55:58;36.25;30.50;15.00
72509;PMS5003;60532;56.114;40.350;2023-11-19T05:57:59;41.75;30.50;16.00
72509;PMS5003;60532;56.114;40.350;2023-11-19T05:59:59;31.25;27.00;16.00
72509;PMS5003;60532;56.114;40.350;2023-11-19T06:02:00;28.25;19.50;10.00
72509;PMS5003;60532;56.114;40.350;2023-11-19T06:04:01;52.50;32.00;15.75
72509;PMS5003;60532;56.114;40.350;2023-11-19T06:06:01;36.50;26.75;14.50
72509;PMS5003;60532;56.114;40.350;2023-11-19T06:08:01;32.50;22.00;15.50
72509;PMS5003;60532;56.114;40.350;2023-11-19T06:10:02;41.50;29.50;13.00
72509;PMS5003;60532;56.114;40.350;2023-11-19T06:12:07;39.20;27.80;13.00
72509;PMS5003;60532;56.114;40.350;2023-11-19T06:14:07;33.25;27.75;14.00
72509;PMS5003;60532;56.114;40.350;2023-11-19T06:16:08;37.00;27.25;16.75
72509;PMS5003;60532;56.114;40.350;2023-11-19T06:18:08;35.25;32.50;19.00
72509;PMS5003;60532;56.114;40.350;2023-11-19T06:20:10;44.00;34.00;15.60
72509;PMS5003;60532;56.114;40.350;2023-11-19T06:22:12;40.00;33.40;15.60
72509;PMS5003;60532;56.114;40.350;2023-11-19T06:24:12;40.25;30.50;16.00
72509;PMS5003;60532;56.114;40.350;2023-11-19T06:26:12;21.00;18.00;14.00
72509;PMS5003;60532;56.114;40.350;2023-11-19T06:28:14;36.60;28.00;15.80
72509;PMS5003;60532;56.114;40.350;2023-11-19T06:30:14;29.50;25.25;14.00
72509;PMS5003;60532;56.114;40.350;2023-11-19T06:32:15;34.50;25.00;13.00
72509;PMS5003;60532;56.114;40.350;2023-11-19T06:34:15;32.25;27.50;13.00
72509;PMS5003;60532;56.114;40.350;2023-11-19T06:36:16;32.00;30.25;15.00
72509;PMS5003;60532;56.114;40.350;2023-11-19T06:38:16;31.25;28.00;13.50
72509;PMS5003;60532;56.114;40.350;2023-11-19T06:40:17;39.50;29.25;18.00
72509;PMS5003;60532;56.114;40.350;2023-11-19T06:42:17;33.25;25.50;12.00
72509;PMS5003;60532;56.114;40.350;2023-11-19T06:44:18;21.75;21.00;15.00
72509;PMS5003;60532;56.114;40.350;2023-11-19T06:46:19;34.50;29.50;14.50
72509;PMS5003;60532;56.114;40.350;2023-11-19T06:48:19;35.00;25.00;15.00
72509;PMS5003;60532;56.114;40.350;2023-11-19T06:50:20;18.25;16.00;9.25
72509;PMS5003;60532;56.114;40.350;2023-11-19T06:52:20;24.75;20.00;12.00
72509;PMS5003;60532;56.114;40.350;2023-11-19T06:54:21;40.00;27.50;15.50
72509;PMS5003;60532;56.114;40.350;2023-11-19T06:56:22;32.75;21.00;12.00
72509;PMS5003;60532;56.114;40.350;2023-11-19T06:58:22;39.00;31.00;15.60
72509;PMS5003;60532;56.114;40.350;2023-11-19T07:00:23;39.50;34.50;16.00
72509;PMS5003;60532;56.114;40.350;2023-11-19T07:02:23;30.00;19.25;9.00
72509;PMS5003;60532;56.114;40.350;2023-11-19T07:04:24;36.00;30.75;18.00
72509;PMS5003;60532;56.114;40.350;2023-11-19T07:06:24;37.50;30.25;15.25
72509;PMS5003;60532;56.114;40.350;2023-11-19T07:08:24;38.00;25.50;13.00
72509;PMS5003;60532;56.114;40.350;2023-11-19T07:10:25;36.75;31.50;17.50
72509;PMS5003;60532;56.114;40.350;2023-11-19T07:12:25;36.25;29.50;16.00
72509;PMS5003;60532;56.114;40.350;2023-11-19T07:14:29;23.40;23.40;15.00
72509;PMS5003;60532;56.114;40.350;2023-11-19T07:16:29;25.25;22.50;12.25
72509;PMS5003;60532;56.114;40.350;2023-11-19T07:18:30;38.00;31.00;15.25
72509;PMS5003;60532;56.114;40.350;2023-11-19T07:20:31;37.40;32.20;15.20
72509;PMS5003;60532;56.114;40.350;2023-11-19T07:22:33;32.60;28.80;15.20
72509;PMS5003;60532;56.114;40.350;2023-11-19T07:24:33;44.50;24.00;10.50
72509;PMS5003;60532;56.114;40.350;2023-11-19T07:26:34;38.75;31.75;18.00
72509;PMS5003;60532;56.114;40.350;2023-11-19T07:28:34;40.00;32.50;15.50
72509;PMS5003;60532;56.114;40.350;2023-11-19T07:30:35;30.75;25.00;15.00
72509;PMS5003;60532;56.114;40.350;2023-11-19T07:32:35;36.75;30.50;18.00
72509;PMS5003;60532;56.114;40.350;2023-11-19T07:34:35;42.00;34.50;19.00
72509;PMS5003;60532;56.114;40.350;2023-11-19T07:36:36;49.00;35.50;19.00
72509;PMS5003;60532;56.114;40.350;2023-11-19T07:38:36;46.25;30.50;15.00
72509;PMS5003;60532;56.114;40.350;2023-11-19T07:40:37;60.50;45.50;25.00
72509;PMS5003;60532;56.114;40.350;2023-11-19T07:42:37;44.25;39.50;21.50
72509;PMS5003;60532;56.114;40.350;2023-11-19T07:44:38;62.25;48.00;24.00
72509;PMS5003;60532;56.114;40.350;2023-11-19T07:46:38;63.75;47.50;27.50
72509;PMS5003;60532;56.114;40.350;2023-11-19T07:48:42;48.50;40.50;22.25
72509;PMS5003;60532;56.114;40.350;2023-11-19T07:50:42;67.00;48.00;24.80
72509;PMS5003;60532;56.114;40.350;2023-11-19T07:52:42;61.25;45.00;22.00
72509;PMS5003;60532;56.114;40.350;2023-11-19T07:54:43;50.00;45.25;24.75
72509;PMS5003;60532;56.114;40.350;2023-11-19T07:56:43;60.25;39.75;24.00
72509;PMS5003;60532;56.114;40.350;2023-11-19T07:58:44;42.50;31.25;21.50
72509;PMS5003;60532;56.114;40.350;2023-11-19T08:00:44;51.50;45.25;24.00
72509;PMS5003;60532;56.114;40.350;2023-11-19T08:02:45;67.00;45.25;24.50
72509;PMS5003;60532;56.114;40.350;2023-11-19T08:04:45;20.50;13.00;7.00
72509;PMS5003;60532;56.114;40.350;2023-11-19T08:06:46;50.00;42.50;25.50
72509;PMS5003;60532;56.114;40.350;2023-11-19T08:08:46;40.25;30.25;9.50
72509;PMS5003;60532;56.114;40.350;2023-11-19T08:10:48;43.00;34.40;15.40
72509;PMS5003;60532;56.114;40.350;2023-11-19T08:12:49;55.20;40.80;20.20
72509;PMS5003;60532;56.114;40.350;2023-11-19T08:14:49;58.75;41.25;21.75
72509;PMS5003;60532;56.114;40.350;2023-11-19T08:16:50;47.50;36.75;23.50
72509;PMS5003;60532;56.114;40.350;2023-11-19T08:18:50;33.75;31.00;18.00
72509;PMS5003;60532;56.114;40.350;2023-11-19T08:20:51;51.00;42.75;22.50
72509;PMS5003;60532;56.114;40.350;2023-11-19T08:22:53;47.20;35.80;18.00
72509;PMS5003;60532;56.114;40.350;2023-11-19T08:24:54;45.25;31.50;18.00
72509;PMS5003;60532;56.114;40.350;2023-11-19T08:26:54;49.00;35.50;20.50
72509;PMS5003;60532;56.114;40.350;2023-11-19T08:28:55;41.25;34.00;18.00
72509;PMS5003;60532;56.114;40.350;2023-11-19T08:30:55;37.50;30.00;15.00
72509;PMS5003;60532;56.114;40.350;2023-11-19T08:32:56;40.00;33.75;18.00
72509;PMS5003;60532;56.114;40.350;2023-11-19T08:34:56;47.00;30.00;14.50
72509;PMS5003;60532;56.114;40.350;2023-11-19T08:36:56;28.25;21.00;7.00
72509;PMS5003;60532;56.114;40.350;2023-11-19T08:38:57;41.00;28.00;15.00
72509;PMS5003;60532;56.114;40.350;2023-11-19T08:40:57;35.25;27.00;16.00
72509;PMS5003;60532;56.114;40.350;2023-11-19T08:43:01;41.80;33.20;16.00
72509;PMS5003;60532;56.114;40.350;2023-11-19T08:45:01;34.00;29.75;16.00
72509;PMS5003;60532;56.114;40.350;2023-11-19T08:47:02;41.25;32.75;18.00
72509;PMS5003;60532;56.114;40.350;2023-11-19T08:49:02;30.50;24.50;14.25
72509;PMS5003;60532;56.114;40.350;2023-11-19T08:51:03;33.50;28.50;16.50
72509;PMS5003;60532;56.114;40.350;2023-11-19T08:53:04;39.00;31.20;15.00
72509;PMS5003;60532;56.114;40.350;2023-11-19T08:55:07;43.60;31.80;18.00
72509;PMS5003;60532;56.114;40.350;2023-11-19T08:57:07;36.50;26.50;12.00
72509;PMS5003;60532;56.114;40.350;2023-11-19T08:59:09;40.40;29.00;15.40
72509;PMS5003;60532;56.114;40.350;2023-11-19T09:01:09;36.25;25.50;13.50
72509;PMS5003;60532;56.114;40.350;2023-11-19T09:03:10;27.00;21.50;7.00
72509;PMS5003;60532;56.114;40.350;2023-11-19T09:05:10;37.50;31.00;15.25
72509;PMS5003;60532;56.114;40.350;2023-11-19T09:07:10;30.75;24.25;12.00
72509;PMS5003;60532;56.114;40.350;2023-11-19T09:09:11;29.75;27.00;15.00
72509;PMS5003;60532;56.114;40.350;2023-11-19T09:11:11;25.75;23.00;8.50
72509;PMS5003;60532;56.114;40.350;2023-11-19T09:13:12;40.75;26.00;15.00
72509;PMS5003;60532;56.114;40.350;2023-11-19T09:15:12;37.25;24.50;15.00
72509;PMS5003;60532;56.114;40.350;2023-11-19T09:17:13;39.00;23.50;12.00
72509;PMS5003;60532;56.114;40.350;2023-11-19T09:19:14;29.75;23.00;15.25
72509;PMS5003;60532;56.114;40.350;2023-11-19T09:21:14;34.50;26.50;12.00
72509;PMS5003;60532;56.114;40.350;2023-11-19T09:23:14;33.25;26.00;13.50
72509;PMS5003;60532;56.114;40.350;2023-11-19T09:25:15;36.50;27.50;16.00
72509;PMS5003;60532;56.114;40.350;2023-11-19T09:27:17;32.20;24.80;15.00
72509;PMS5003;60532;56.114;40.350;2023-11-19T09:29:17;26.60;21.40;10.40
72509;PMS5003;60532;56.114;40.350;2023-11-19T09:31:18;28.75;25.25;12.00
72509;PMS5003;60532;56.114;40.350;2023-11-19T09:33:19;21.25;19.00;9.25
72509;PMS5003;60532;56.114;40.350;2023-11-19T09:35:20;31.40;22.80;11.60
72509;PMS5003;60532;56.114;40.350;2023-11-19T09:37:20;21.25;18.50;9.50
72509;PMS5003;60532;56.114;40.350;2023-11-19T09:39:21;26.00;17.00;11.50
72509;PMS5003;60532;56.114;40.350;2023-11-19T09:41:22;38.00;21.00;10.00
72509;PMS5003;60532;56.114;40.350;2023-11-19T09:43:23;23.00;19.80;9.60
72509;PMS5003;60532;56.114;40.350;2023-11-19T09:45:24;25.75;23.00;12.00
72509;PMS5003;60532;56.114;40.350;2023-11-19T09:47:26;18.00;15.00;9.40
72509;PMS5003;60532;56.114;40.350;2023-11-19T09:49:27;20.60;16.00;6.20
72509;PMS5003;60532;56.114;40.350;2023-11-19T09:51:28;20.80;20.20;9.40
72509;PMS5003;60532;56.114;40.350;2023-11-19T09:53:29;19.25;13.25;9.50
72509;PMS5003;60532;56.114;40.350;2023-11-19T09:55:29;10.00;8.00;7.00
72509;PMS5003;60532;56.114;40.350;2023-11-19T09:57:30;17.00;17.00;7.50
72509;PMS5003;60532;56.114;40.350;2023-11-19T09:59:33;15.20;12.00;6.80
72509;PMS5003;60532;56.114;40.350;2023-11-19T10:01:33;20.00;16.00;7.00
72509;PMS5003;60532;56.114;40.350;2023-11-19T10:03:34;18.75;15.00;9.00
72509;PMS5003;60532;56.114;40.350;2023-11-19T10:05:38;24.60;16.40;8.20
72509;PMS5003;60532;56.114;40.350;2023-11-19T10:07:39;18.80;17.20;7.80
72509;PMS5003;60532;56.114;40.350;2023-11-19T10:09:39;20.25;15.50;7.00
72509;PMS5003;60532;56.114;40.350;2023-11-19T10:11:40;21.00;17.00;9.00
72509;PMS5003;60532;56.114;40.350;2023-11-19T10:13:40;15.00;11.50;5.00
72509;PMS5003;60532;56.114;40.350;2023-11-19T10:15:42;18.60;16.40;10.00
72509;PMS5003;60532;56.114;40.350;2023-11-19T10:17:43;17.60;15.00;9.00
72509;PMS5003;60532;56.114;40.350;2023-11-19T10:19:44;20.00;16.50;8.00
72509;PMS5003;60532;56.114;40.350;2023-11-19T10:21:44;9.00;4.00;3.00
72509;PMS5003;60532;56.114;40.350;2023-11-19T10:23:49;18.00;16.00;7.00
72509;PMS5003;60532;56.114;40.350;2023-11-19T10:25:52;15.80;12.60;7.00
72509;PMS5003;60532;56.114;40.350;2023-11-19T10:27:53;15.20;14.60;9.00
72509;PMS5003;60532;56.114;40.350;2023-11-19T10:29:54;18.60;14.60;6.00
72509;PMS5003;60532;56.114;40.350;2023-11-19T10:31:59;22.80;14.60;7.00
72509;PMS5003;60532;56.114;40.350;2023-11-19T10:33:59;19.00;15.00;9.00
72509;PMS5003;60532;56.114;40.350;2023-11-19T10:36:00;19.00;14.50;8.50
72509;PMS5003;60532;56.114;40.350;2023-11-19T10:38:01;9.00;3.00;3.00
72509;PMS5003;60532;56.114;40.350;2023-11-19T10:40:13;17.00;12.00;5.80
72509;PMS5003;60532;56.114;40.350;2023-11-19T10:42:16;20.00;16.40;7.00
72509;PMS5003;60532;56.114;40.350;2023-11-19T10:46:46;18.20;12.60;6.60
72509;PMS5003;60532;56.114;40.350;2023-11-19T10:48:49;14.80;12.40;6.60
72509;PMS5003;60532;56.114;40.350;2023-11-19T10:50:53;14.20;12.60;6.40
72509;PMS5003;60532;56.114;40.350;2023-11-19T10:52:58;15.60;13.40;7.40
72509;PMS5003;60532;56.114;40.350;2023-11-19T10:55:00;20.20;9.80;2.20
72509;PMS5003;60532;56.114;40.350;2023-11-19T10:57:01;12.60;12.60;6.80
72509;PMS5003;60532;56.114;40.350;2023-11-19T10:59:02;14.00;14.00;6.40
72509;PMS5003;60532;56.114;40.350;2023-11-19T11:01:04;22.40;18.20;7.00
72509;PMS5003;60532;56.114;40.350;2023-11-19T11:03:11;9.60;6.00;2.20
72509;PMS5003;60532;56.114;40.350;2023-11-19T11:05:15;13.80;10.40;7.00
72509;PMS5003;60532;56.114;40.350;2023-11-19T11:07:16;21.00;14.60;7.00
72509;PMS5003;60532;56.114;40.350;2023-11-19T11:09:20;18.40;15.20;7.40
72509;PMS5003;60532;56.114;40.350;2023-11-19T11:11:20;11.50;10.50;6.00
72509;PMS5003;60532;56.114;40.350;2023-11-19T11:13:23;26.60;14.60;8.60
72509;PMS5003;60532;56.114;40.350;2023-11-19T11:15:26;18.00;12.20;6.20
72509;PMS5003;60532;56.114;40.350;2023-11-19T11:17:28;15.80;13.40;8.60